sensor_id;sensor_type;location;lat;lon;timestamp;P1;durP1;ratioP1;P2;durP2;ratioP2
72123;SDS011;63818;37.134;-8.548;2023-05-10T00:04:06;11.4;;;4.8;;
72123;SDS011;63818;37.134;-8.548;2023-05-10T00:08:52;10.9;;;4.8;;
72123;SDS011;63818;37.134;-8.548;2023-05-10T00:13:38;10.7;;;4.6;;
72123;SDS011;63818;37.134;-8.548;2023-05-10T00:18:24;9.6;;;4.6;;
72123;SDS011;63818;37.134;-8.548;2023-05-10T00:23:10;9.5;;;4.8;;
72123;SDS011;63818;37.134;-8.548;2023-05-10T00:27:56;10.6;;;4.9;;
72123;SDS011;63818;37.134;-8.548;2023-05-10T00:32:41;10.5;;;4.9;;
72123;SDS011;63818;37.134;-8.548;2023-05-10T00:37:28;12.9;;;4.7;;
72123;SDS011;63818;37.134;-8.548;2023-05-10T00:42:13;14.6;;;4.9;;
72123;SDS011;63818;37.134;-8.548;2023-05-10T00:46:59;10.3;;;4.9;;
72123;SDS011;63818;37.134;-8.548;2023-05-10T00:51:45;9.1;;;4.6;;
72123;SDS011;63818;37.134;-8.548;2023-05-10T00:56:34;9.4;;;4.5;;
72123;SDS011;63818;37.134;-8.548;2023-05-10T01:01:22;9.0;;;4.6;;
72123;SDS011;63818;37.134;-8.548;2023-05-10T01:06:08;8.7;;;4.5;;
72123;SDS011;63818;37.134;-8.548;2023-05-10T01:10:54;9.1;;;4.6;;
72123;SDS011;63818;37.134;-8.548;2023-05-10T01:15:40;8.9;;;4.4;;
72123;SDS011;63818;37.134;-8.548;2023-05-10T01:20:26;7.5;;;4.4;;
72123;SDS011;63818;37.134;-8.548;2023-05-10T01:25:25;8.1;;;4.7;;
72123;SDS011;63818;37.134;-8.548;2023-05-10T01:31:14;9.0;;;4.7;;
72123;SDS011;63818;37.134;-8.548;2023-05-10T01:36:06;9.7;;;4.6;;
72123;SDS011;63818;37.134;-8.548;2023-05-10T01:41:00;8.7;;;4.5;;
72123;SDS011;63818;37.134;-8.548;2023-05-10T01:45:57;9.6;;;4.4;;
72123;SDS011;63818;37.134;-8.548;2023-05-10T01:50:47;11.1;;;4.6;;
72123;SDS011;63818;37.134;-8.548;2023-05-10T01:55:41;8.9;;;4.6;;
72123;SDS011;63818;37.134;-8.548;2023-05-10T02:00:32;7.9;;;4.7;;
72123;SDS011;63818;37.134;-8.548;2023-05-10T02:05:19;8.1;;;4.7;;
72123;SDS011;63818;37.134;-8.548;2023-05-10T02:10:07;8.6;;;4.6;;
72123;SDS011;63818;37.134;-8.548;2023-05-10T02:14:56;8.8;;;4.6;;
72123;SDS011;63818;37.134;-8.548;2023-05-10T02:19:44;7.7;;;4.4;;
72123;SDS011;63818;37.134;-8.548;2023-05-10T02:24:32;9.1;;;4.6;;
72123;SDS011;63818;37.134;-8.548;2023-05-10T02:29:20;10.1;;;4.7;;
72123;SDS011;63818;37.134;-8.548;2023-05-10T02:34:08;8.2;;;4.6;;
72123;SDS011;63818;37.134;-8.548;2023-05-10T02:38:56;9.3;;;4.5;;
72123;SDS011;63818;37.134;-8.548;2023-05-10T02:43:44;9.5;;;4.6;;
72123;SDS011;63818;37.134;-8.548;2023-05-10T02:48:32;8.5;;;4.8;;
72123;SDS011;63818;37.134;-8.548;2023-05-10T02:53:21;9.2;;;4.6;;
72123;SDS011;63818;37.134;-8.548;2023-05-10T02:58:09;9.6;;;4.5;;
72123;SDS011;63818;37.134;-8.548;2023-05-10T03:02:55;9.5;;;4.7;;
72123;SDS011;63818;37.134;-8.548;2023-05-10T03:07:41;10.1;;;4.7;;
72123;SDS011;63818;37.134;-8.548;2023-05-10T03:12:31;11.8;;;4.6;;
72123;SDS011;63818;37.134;-8.548;2023-05-10T03:17:19;11.1;;;4.7;;
72123;SDS011;63818;37.134;-8.548;2023-05-10T03:22:16;8.6;;;4.7;;
72123;SDS011;63818;37.134;-8.548;2023-05-10T03:27:09;8.4;;;4.6;;
72123;SDS011;63818;37.134;-8.548;2023-05-10T03:31:56;8.0;;;4.6;;
72123;SDS011;63818;37.134;-8.548;2023-05-10T03:36:43;9.5;;;4.7;;
72123;SDS011;63818;37.134;-8.548;2023-05-10T03:41:29;11.8;;;4.8;;
72123;SDS011;63818;37.134;-8.548;2023-05-10T03:46:14;10.3;;;4.8;;
72123;SDS011;63818;37.134;-8.548;2023-05-10T03:51:02;10.3;;;4.9;;
72123;SDS011;63818;37.134;-8.548;2023-05-10T03:55:48;10.4;;;4.7;;
72123;SDS011;63818;37.134;-8.548;2023-05-10T04:00:34;10.2;;;4.5;;
72123;SDS011;63818;37.134;-8.548;2023-05-10T04:05:20;11.7;;;4.8;;
72123;SDS011;63818;37.134;-8.548;2023-05-10T04:10:07;10.1;;;4.6;;
72123;SDS011;63818;37.134;-8.548;2023-05-10T04:14:53;8.1;;;4.5;;
72123;SDS011;63818;37.134;-8.548;2023-05-10T04:19:39;9.3;;;4.6;;
72123;SDS011;63818;37.134;-8.548;2023-05-10T04:24:27;9.4;;;4.6;;
72123;SDS011;63818;37.134;-8.548;2023-05-10T04:29:13;8.6;;;4.7;;
72123;SDS011;63818;37.134;-8.548;2023-05-10T04:34:00;8.6;;;4.6;;
72123;SDS011;63818;37.134;-8.548;2023-05-10T04:38:45;8.8;;;4.5;;
72123;SDS011;63818;37.134;-8.548;2023-05-10T04:43:31;9.5;;;4.6;;
72123;SDS011;63818;37.134;-8.548;2023-05-10T04:48:17;8.7;;;4.4;;
72123;SDS011;63818;37.134;-8.548;2023-05-10T04:53:03;8.1;;;4.4;;
72123;SDS011;63818;37.134;-8.548;2023-05-10T04:57:49;8.7;;;4.6;;
72123;SDS011;63818;37.134;-8.548;2023-05-10T05:02:35;9.0;;;4.7;;
72123;SDS011;63818;37.134;-8.548;2023-05-10T05:07:20;9.1;;;4.6;;
72123;SDS011;63818;37.134;-8.548;2023-05-10T05:12:07;7.9;;;4.4;;
72123;SDS011;63818;37.134;-8.548;2023-05-10T05:16:53;9.1;;;4.4;;
72123;SDS011;63818;37.134;-8.548;2023-05-10T05:21:39;9.3;;;4.5;;
72123;SDS011;63818;37.134;-8.548;2023-05-10T05:26:25;9.7;;;4.6;;
72123;SDS011;63818;37.134;-8.548;2023-05-10T05:31:11;12.3;;;4.5;;
72123;SDS011;63818;37.134;-8.548;2023-05-10T05:36:02;10.9;;;4.4;;
72123;SDS011;63818;37.134;-8.548;2023-05-10T05:40:48;8.8;;;4.6;;
72123;SDS011;63818;37.134;-8.548;2023-05-10T05:45:34;9.0;;;4.6;;
72123;SDS011;63818;37.134;-8.548;2023-05-10T05:50:20;8.5;;;4.3;;
72123;SDS011;63818;37.134;-8.548;2023-05-10T05:55:07;7.3;;;4.3;;
72123;SDS011;63818;37.134;-8.548;2023-05-10T05:59:53;8.0;;;4.4;;
72123;SDS011;63818;37.134;-8.548;2023-05-10T06:04:39;8.3;;;4.4;;
72123;SDS011;63818;37.134;-8.548;2023-05-10T06:09:25;7.9;;;4.4;;
72123;SDS011;63818;37.134;-8.548;2023-05-10T06:14:11;10.7;;;4.7;;
72123;SDS011;63818;37.134;-8.548;2023-05-10T06:18:57;10.7;;;4.7;;
72123;SDS011;63818;37.134;-8.548;2023-05-10T06:23:43;9.1;;;4.5;;
72123;SDS011;63818;37.134;-8.548;2023-05-10T06:28:28;10.1;;;4.4;;
72123;SDS011;63818;37.134;-8.548;2023-05-10T06:33:14;9.3;;;4.5;;
72123;SDS011;63818;37.134;-8.548;2023-05-10T06:38:00;8.8;;;4.5;;
72123;SDS011;63818;37.134;-8.548;2023-05-10T06:42:46;8.4;;;4.4;;
72123;SDS011;63818;37.134;-8.548;2023-05-10T06:47:33;7.0;;;4.4;;
72123;SDS011;63818;37.134;-8.548;2023-05-10T06:52:18;8.0;;;4.6;;
72123;SDS011;63818;37.134;-8.548;2023-05-10T06:57:04;8.8;;;4.6;;
72123;SDS011;63818;37.134;-8.548;2023-05-10T07:01:50;9.4;;;4.4;;
72123;SDS011;63818;37.134;-8.548;2023-05-10T07:06:37;12.3;;;4.6;;
72123;SDS011;63818;37.134;-8.548;2023-05-10T07:11:23;11.6;;;4.6;;
72123;SDS011;63818;37.134;-8.548;2023-05-10T07:16:09;9.3;;;4.5;;
72123;SDS011;63818;37.134;-8.548;2023-05-10T07:20:55;11.1;;;4.7;;
72123;SDS011;63818;37.134;-8.548;2023-05-10T07:25:42;11.6;;;4.8;;
72123;SDS011;63818;37.134;-8.548;2023-05-10T07:30:30;11.5;;;4.8;;
72123;SDS011;63818;37.134;-8.548;2023-05-10T07:35:16;12.5;;;5.0;;
72123;SDS011;63818;37.134;-8.548;2023-05-10T07:40:02;13.2;;;5.3;;
72123;SDS011;63818;37.134;-8.548;2023-05-10T07:44:48;13.5;;;5.2;;
72123;SDS011;63818;37.134;-8.548;2023-05-10T07:49:34;11.9;;;5.0;;
72123;SDS011;63818;37.134;-8.548;2023-05-10T07:54:20;10.9;;;5.0;;
72123;SDS011;63818;37.134;-8.548;2023-05-10T07:59:05;12.1;;;4.9;;
72123;SDS011;63818;37.134;-8.548;2023-05-10T08:03:51;11.6;;;5.2;;
72123;SDS011;63818;37.134;-8.548;2023-05-10T08:08:37;10.5;;;5.0;;
72123;SDS011;63818;37.134;-8.548;2023-05-10T08:13:23;12.1;;;4.7;;
72123;SDS011;63818;37.134;-8.548;2023-05-10T08:18:09;16.7;;;5.1;;
72123;SDS011;63818;37.134;-8.548;2023-05-10T08:22:55;17.9;;;5.0;;
72123;SDS011;63818;37.134;-8.548;2023-05-10T08:27:41;17.0;;;5.1;;
72123;SDS011;63818;37.134;-8.548;2023-05-10T08:32:27;14.8;;;5.3;;
72123;SDS011;63818;37.134;-8.548;2023-05-10T08:37:13;10.2;;;5.1;;
72123;SDS011;63818;37.134;-8.548;2023-05-10T08:42:00;9.6;;;5.1;;
72123;SDS011;63818;37.134;-8.548;2023-05-10T08:46:48;10.1;;;4.9;;
72123;SDS011;63818;37.134;-8.548;2023-05-10T08:51:40;9.4;;;4.8;;
72123;SDS011;63818;37.134;-8.548;2023-05-10T08:56:29;9.2;;;4.8;;
72123;SDS011;63818;37.134;-8.548;2023-05-10T09:01:15;10.3;;;4.9;;
72123;SDS011;63818;37.134;-8.548;2023-05-10T09:06:04;11.0;;;4.9;;
72123;SDS011;63818;37.134;-8.548;2023-05-10T09:10:50;10.3;;;4.9;;
72123;SDS011;63818;37.134;-8.548;2023-05-10T09:15:39;9.5;;;5.0;;
72123;SDS011;63818;37.134;-8.548;2023-05-10T09:20:25;10.5;;;4.9;;
72123;SDS011;63818;37.134;-8.548;2023-05-10T09:25:12;11.9;;;5.0;;
72123;SDS011;63818;37.134;-8.548;2023-05-10T09:29:59;12.5;;;5.1;;
72123;SDS011;63818;37.134;-8.548;2023-05-10T09:34:46;12.3;;;5.2;;
72123;SDS011;63818;37.134;-8.548;2023-05-10T09:39:37;12.6;;;5.1;;
72123;SDS011;63818;37.134;-8.548;2023-05-10T09:44:23;12.4;;;4.9;;
72123;SDS011;63818;37.134;-8.548;2023-05-10T09:49:11;11.4;;;4.9;;
72123;SDS011;63818;37.134;-8.548;2023-05-10T09:54:10;13.1;;;5.1;;
72123;SDS011;63818;37.134;-8.548;2023-05-10T09:59:03;11.4;;;4.8;;
72123;SDS011;63818;37.134;-8.548;2023-05-10T10:03:49;9.7;;;5.2;;
72123;SDS011;63818;37.134;-8.548;2023-05-10T10:08:38;11.6;;;5.7;;
72123;SDS011;63818;37.134;-8.548;2023-05-10T10:13:25;14.4;;;6.5;;
72123;SDS011;63818;37.134;-8.548;2023-05-10T10:18:13;13.8;;;6.4;;
72123;SDS011;63818;37.134;-8.548;2023-05-10T10:22:59;11.6;;;5.3;;
72123;SDS011;63818;37.134;-8.548;2023-05-10T10:27:56;12.1;;;4.9;;
72123;SDS011;63818;37.134;-8.548;2023-05-10T10:32:59;10.7;;;4.8;;
72123;SDS011;63818;37.134;-8.548;2023-05-10T10:37:52;10.1;;;4.7;;
72123;SDS011;63818;37.134;-8.548;2023-05-10T10:42:47;9.2;;;4.6;;
72123;SDS011;63818;37.134;-8.548;2023-05-10T10:47:33;9.7;;;4.6;;
72123;SDS011;63818;37.134;-8.548;2023-05-10T10:52:23;11.1;;;4.6;;
72123;SDS011;63818;37.134;-8.548;2023-05-10T10:57:13;12.4;;;4.8;;
72123;SDS011;63818;37.134;-8.548;2023-05-10T11:02:00;13.4;;;4.9;;
72123;SDS011;63818;37.134;-8.548;2023-05-10T11:06:46;12.1;;;4.7;;
72123;SDS011;63818;37.134;-8.548;2023-05-10T11:11:32;12.3;;;4.9;;
72123;SDS011;63818;37.134;-8.548;2023-05-10T11:16:20;12.7;;;4.9;;
72123;SDS011;63818;37.134;-8.548;2023-05-10T11:21:08;12.0;;;4.7;;
72123;SDS011;63818;37.134;-8.548;2023-05-10T11:25:56;11.5;;;4.9;;
72123;SDS011;63818;37.134;-8.548;2023-05-10T11:30:44;14.2;;;5.3;;
72123;SDS011;63818;37.134;-8.548;2023-05-10T11:35:30;13.5;;;5.1;;
72123;SDS011;63818;37.134;-8.548;2023-05-10T11:40:16;11.9;;;4.9;;
72123;SDS011;63818;37.134;-8.548;2023-05-10T11:45:02;13.1;;;5.3;;
72123;SDS011;63818;37.134;-8.548;2023-05-10T11:49:48;15.9;;;5.4;;
72123;SDS011;63818;37.134;-8.548;2023-05-10T11:54:34;15.7;;;5.1;;
72123;SDS011;63818;37.134;-8.548;2023-05-10T11:59:20;12.8;;;5.2;;
72123;SDS011;63818;37.134;-8.548;2023-05-10T12:04:08;12.6;;;5.3;;
72123;SDS011;63818;37.134;-8.548;2023-05-10T12:08:54;11.5;;;5.3;;
72123;SDS011;63818;37.134;-8.548;2023-05-10T12:13:41;13.8;;;5.6;;
72123;SDS011;63818;37.134;-8.548;2023-05-10T12:18:27;14.2;;;5.6;;
72123;SDS011;63818;37.134;-8.548;2023-05-10T12:23:14;13.4;;;5.5;;
72123;SDS011;63818;37.134;-8.548;2023-05-10T12:28:03;13.5;;;5.5;;
72123;SDS011;63818;37.134;-8.548;2023-05-10T12:32:50;11.7;;;5.3;;
72123;SDS011;63818;37.134;-8.548;2023-05-10T12:37:38;10.5;;;5.0;;
72123;SDS011;63818;37.134;-8.548;2023-05-10T12:42:24;9.6;;;5.2;;
72123;SDS011;63818;37.134;-8.548;2023-05-10T12:47:12;12.9;;;5.4;;
72123;SDS011;63818;37.134;-8.548;2023-05-10T12:52:01;13.7;;;5.1;;
72123;SDS011;63818;37.134;-8.548;2023-05-10T12:56:47;10.9;;;5.1;;
72123;SDS011;63818;37.134;-8.548;2023-05-10T13:01:36;12.3;;;6.0;;
72123;SDS011;63818;37.134;-8.548;2023-05-10T13:06:22;12.4;;;5.8;;
72123;SDS011;63818;37.134;-8.548;2023-05-10T13:11:08;12.6;;;5.0;;
72123;SDS011;63818;37.134;-8.548;2023-05-10T13:15:54;11.9;;;5.0;;
72123;SDS011;63818;37.134;-8.548;2023-05-10T13:20:40;10.2;;;5.1;;
72123;SDS011;63818;37.134;-8.548;2023-05-10T13:25:26;16.1;;;5.6;;
72123;SDS011;63818;37.134;-8.548;2023-05-10T13:30:13;22.3;;;6.2;;
72123;SDS011;63818;37.134;-8.548;2023-05-10T13:35:01;20.2;;;6.3;;
72123;SDS011;63818;37.134;-8.548;2023-05-10T13:39:48;19.1;;;6.3;;
72123;SDS011;63818;37.134;-8.548;2023-05-10T13:44:34;17.4;;;6.2;;
72123;SDS011;63818;37.134;-8.548;2023-05-10T13:49:20;14.9;;;6.0;;
72123;SDS011;63818;37.134;-8.548;2023-05-10T13:54:06;20.3;;;6.5;;
72123;SDS011;63818;37.134;-8.548;2023-05-10T13:58:52;26.9;;;6.9;;
72123;SDS011;63818;37.134;-8.548;2023-05-10T14:03:38;26.6;;;6.5;;
72123;SDS011;63818;37.134;-8.548;2023-05-10T14:08:24;27.1;;;6.6;;
72123;SDS011;63818;37.134;-8.548;2023-05-10T14:13:09;29.0;;;6.9;;
72123;SDS011;63818;37.134;-8.548;2023-05-10T14:17:55;25.7;;;6.5;;
72123;SDS011;63818;37.134;-8.548;2023-05-10T14:22:41;24.1;;;6.1;;
72123;SDS011;63818;37.134;-8.548;2023-05-10T14:27:28;23.5;;;6.3;;
72123;SDS011;63818;37.134;-8.548;2023-05-10T14:32:16;25.7;;;6.3;;
72123;SDS011;63818;37.134;-8.548;2023-05-10T14:37:01;24.8;;;6.0;;
72123;SDS011;63818;37.134;-8.548;2023-05-10T14:41:47;25.8;;;6.2;;
72123;SDS011;63818;37.134;-8.548;2023-05-10T14:46:33;26.3;;;6.2;;
72123;SDS011;63818;37.134;-8.548;2023-05-10T14:51:20;23.1;;;5.8;;
72123;SDS011;63818;37.134;-8.548;2023-05-10T14:56:06;22.6;;;5.7;;
72123;SDS011;63818;37.134;-8.548;2023-05-10T15:00:52;26.3;;;5.9;;
72123;SDS011;63818;37.134;-8.548;2023-05-10T15:05:38;24.8;;;6.0;;
72123;SDS011;63818;37.134;-8.548;2023-05-10T15:10:24;19.3;;;5.9;;
72123;SDS011;63818;37.134;-8.548;2023-05-10T15:15:12;19.3;;;5.8;;
72123;SDS011;63818;37.134;-8.548;2023-05-10T15:19:58;19.1;;;5.8;;
72123;SDS011;63818;37.134;-8.548;2023-05-10T15:24:45;20.3;;;5.8;;
72123;SDS011;63818;37.134;-8.548;2023-05-10T15:29:30;19.6;;;6.1;;
72123;SDS011;63818;37.134;-8.548;2023-05-10T15:34:16;17.6;;;6.3;;
72123;SDS011;63818;37.134;-8.548;2023-05-10T15:39:02;18.9;;;5.9;;
72123;SDS011;63818;37.134;-8.548;2023-05-10T15:43:48;22.2;;;5.8;;
72123;SDS011;63818;37.134;-8.548;2023-05-10T15:48:34;18.1;;;5.5;;
72123;SDS011;63818;37.134;-8.548;2023-05-10T15:53:20;17.4;;;5.3;;
72123;SDS011;63818;37.134;-8.548;2023-05-10T15:58:07;23.2;;;6.2;;
72123;SDS011;63818;37.134;-8.548;2023-05-10T16:02:52;22.7;;;6.2;;
72123;SDS011;63818;37.134;-8.548;2023-05-10T16:07:39;20.7;;;5.6;;
72123;SDS011;63818;37.134;-8.548;2023-05-10T16:12:25;22.7;;;6.0;;
72123;SDS011;63818;37.134;-8.548;2023-05-10T16:17:11;19.9;;;6.2;;
72123;SDS011;63818;37.134;-8.548;2023-05-10T16:21:57;17.8;;;6.1;;
72123;SDS011;63818;37.134;-8.548;2023-05-10T16:26:43;19.8;;;5.8;;
72123;SDS011;63818;37.134;-8.548;2023-05-10T16:31:30;24.2;;;5.8;;
72123;SDS011;63818;37.134;-8.548;2023-05-10T16:36:16;30.2;;;6.1;;
72123;SDS011;63818;37.134;-8.548;2023-05-10T16:41:02;17.0;;;6.0;;
72123;SDS011;63818;37.134;-8.548;2023-05-10T16:45:48;19.0;;;6.2;;
72123;SDS011;63818;37.134;-8.548;2023-05-10T16:50:34;18.8;;;6.0;;
72123;SDS011;63818;37.134;-8.548;2023-05-10T16:55:20;16.6;;;5.8;;
72123;SDS011;63818;37.134;-8.548;2023-05-10T17:00:08;24.4;;;6.4;;
72123;SDS011;63818;37.134;-8.548;2023-05-10T17:04:54;20.1;;;6.5;;
72123;SDS011;63818;37.134;-8.548;2023-05-10T17:09:41;23.8;;;6.4;;
72123;SDS011;63818;37.134;-8.548;2023-05-10T17:14:27;20.9;;;6.3;;
72123;SDS011;63818;37.134;-8.548;2023-05-10T17:19:15;15.5;;;5.9;;
72123;SDS011;63818;37.134;-8.548;2023-05-10T17:24:01;26.7;;;6.2;;
72123;SDS011;63818;37.134;-8.548;2023-05-10T17:28:47;22.7;;;6.2;;
72123;SDS011;63818;37.134;-8.548;2023-05-10T17:33:33;20.7;;;5.8;;
72123;SDS011;63818;37.134;-8.548;2023-05-10T17:38:19;19.9;;;5.9;;
72123;SDS011;63818;37.134;-8.548;2023-05-10T17:43:04;19.1;;;6.1;;
72123;SDS011;63818;37.134;-8.548;2023-05-10T17:47:50;16.7;;;6.0;;
72123;SDS011;63818;37.134;-8.548;2023-05-10T17:52:36;17.5;;;6.5;;
72123;SDS011;63818;37.134;-8.548;2023-05-10T17:57:22;19.6;;;6.4;;
72123;SDS011;63818;37.134;-8.548;2023-05-10T18:02:08;19.4;;;5.9;;
72123;SDS011;63818;37.134;-8.548;2023-05-10T18:06:54;18.8;;;5.8;;
72123;SDS011;63818;37.134;-8.548;2023-05-10T18:11:40;19.8;;;5.8;;
72123;SDS011;63818;37.134;-8.548;2023-05-10T18:16:28;20.1;;;5.9;;
72123;SDS011;63818;37.134;-8.548;2023-05-10T18:21:15;19.5;;;6.0;;
72123;SDS011;63818;37.134;-8.548;2023-05-10T18:26:02;19.7;;;5.9;;
72123;SDS011;63818;37.134;-8.548;2023-05-10T18:30:51;16.2;;;5.4;;
72123;SDS011;63818;37.134;-8.548;2023-05-10T18:35:37;15.7;;;5.9;;
72123;SDS011;63818;37.134;-8.548;2023-05-10T18:40:24;19.5;;;6.1;;
72123;SDS011;63818;37.134;-8.548;2023-05-10T18:45:11;22.6;;;5.8;;
72123;SDS011;63818;37.134;-8.548;2023-05-10T18:49:58;19.8;;;6.2;;
72123;SDS011;63818;37.134;-8.548;2023-05-10T18:54:44;17.8;;;6.2;;
72123;SDS011;63818;37.134;-8.548;2023-05-10T18:59:30;20.6;;;6.0;;
72123;SDS011;63818;37.134;-8.548;2023-05-10T19:04:17;20.7;;;6.0;;
72123;SDS011;63818;37.134;-8.548;2023-05-10T19:09:03;23.5;;;6.6;;
72123;SDS011;63818;37.134;-8.548;2023-05-10T19:13:50;23.2;;;6.6;;
72123;SDS011;63818;37.134;-8.548;2023-05-10T19:18:36;20.3;;;6.2;;
72123;SDS011;63818;37.134;-8.548;2023-05-10T19:23:23;20.7;;;6.4;;
72123;SDS011;63818;37.134;-8.548;2023-05-10T19:28:09;21.0;;;6.6;;
72123;SDS011;63818;37.134;-8.548;2023-05-10T19:32:57;20.7;;;6.4;;
72123;SDS011;63818;37.134;-8.548;2023-05-10T19:37:44;21.2;;;6.1;;
72123;SDS011;63818;37.134;-8.548;2023-05-10T19:42:29;20.7;;;6.2;;
72123;SDS011;63818;37.134;-8.548;2023-05-10T19:47:15;21.9;;;6.4;;
72123;SDS011;63818;37.134;-8.548;2023-05-10T19:52:02;27.0;;;6.8;;
72123;SDS011;63818;37.134;-8.548;2023-05-10T19:56:47;25.1;;;6.3;;
72123;SDS011;63818;37.134;-8.548;2023-05-10T20:01:34;21.1;;;5.8;;
72123;SDS011;63818;37.134;-8.548;2023-05-10T20:06:26;20.8;;;6.0;;
72123;SDS011;63818;37.134;-8.548;2023-05-10T20:11:12;18.9;;;6.0;;
72123;SDS011;63818;37.134;-8.548;2023-05-10T20:16:00;19.2;;;6.0;;
72123;SDS011;63818;37.134;-8.548;2023-05-10T20:20:46;21.8;;;6.4;;
72123;SDS011;63818;37.134;-8.548;2023-05-10T20:25:31;20.9;;;6.3;;
72123;SDS011;63818;37.134;-8.548;2023-05-10T20:30:17;19.0;;;6.3;;
72123;SDS011;63818;37.134;-8.548;2023-05-10T20:35:04;21.4;;;6.6;;
72123;SDS011;63818;37.134;-8.548;2023-05-10T20:39:53;22.1;;;6.4;;
72123;SDS011;63818;37.134;-8.548;2023-05-10T20:44:39;18.5;;;6.0;;
72123;SDS011;63818;37.134;-8.548;2023-05-10T20:49:25;17.3;;;6.2;;
72123;SDS011;63818;37.134;-8.548;2023-05-10T20:54:11;17.3;;;6.3;;
72123;SDS011;63818;37.134;-8.548;2023-05-10T20:58:57;17.1;;;6.0;;
72123;SDS011;63818;37.134;-8.548;2023-05-10T21:03:43;18.0;;;5.9;;
72123;SDS011;63818;37.134;-8.548;2023-05-10T21:08:29;16.9;;;5.8;;
72123;SDS011;63818;37.134;-8.548;2023-05-10T21:13:15;18.7;;;6.0;;
72123;SDS011;63818;37.134;-8.548;2023-05-10T21:18:01;18.7;;;6.1;;
72123;SDS011;63818;37.134;-8.548;2023-05-10T21:22:47;19.4;;;6.3;;
72123;SDS011;63818;37.134;-8.548;2023-05-10T21:27:33;20.8;;;6.5;;
72123;SDS011;63818;37.134;-8.548;2023-05-10T21:32:19;15.1;;;6.0;;
72123;SDS011;63818;37.134;-8.548;2023-05-10T21:37:05;11.0;;;5.6;;
72123;SDS011;63818;37.134;-8.548;2023-05-10T21:41:52;14.3;;;6.3;;
72123;SDS011;63818;37.134;-8.548;2023-05-10T21:46:38;20.4;;;6.3;;
72123;SDS011;63818;37.134;-8.548;2023-05-10T21:51:24;22.0;;;5.9;;
72123;SDS011;63818;37.134;-8.548;2023-05-10T21:56:10;17.1;;;5.9;;
72123;SDS011;63818;37.134;-8.548;2023-05-10T22:00:56;16.5;;;5.7;;
72123;SDS011;63818;37.134;-8.548;2023-05-10T22:05:42;22.0;;;5.9;;
72123;SDS011;63818;37.134;-8.548;2023-05-10T22:10:29;21.6;;;6.1;;
72123;SDS011;63818;37.134;-8.548;2023-05-10T22:15:15;19.9;;;6.1;;
72123;SDS011;63818;37.134;-8.548;2023-05-10T22:20:01;20.3;;;6.2;;
72123;SDS011;63818;37.134;-8.548;2023-05-10T22:24:47;18.5;;;6.0;;
72123;SDS011;63818;37.134;-8.548;2023-05-10T22:29:34;17.9;;;5.9;;
72123;SDS011;63818;37.134;-8.548;2023-05-10T22:34:20;16.6;;;5.9;;
72123;SDS011;63818;37.134;-8.548;2023-05-10T22:39:06;17.7;;;5.8;;
72123;SDS011;63818;37.134;-8.548;2023-05-10T22:43:52;16.4;;;5.5;;
72123;SDS011;63818;37.134;-8.548;2023-05-10T22:48:40;11.6;;;5.4;;
72123;SDS011;63818;37.134;-8.548;2023-05-10T22:53:29;11.6;;;5.4;;
72123;SDS011;63818;37.134;-8.548;2023-05-10T22:58:15;12.7;;;5.1;;
72123;SDS011;63818;37.134;-8.548;2023-05-10T23:03:01;14.7;;;5.0;;
72123;SDS011;63818;37.134;-8.548;2023-05-10T23:07:49;13.3;;;5.3;;
72123;SDS011;63818;37.134;-8.548;2023-05-10T23:12:35;14.2;;;5.4;;
72123;SDS011;63818;37.134;-8.548;2023-05-10T23:17:21;14.1;;;5.2;;
72123;SDS011;63818;37.134;-8.548;2023-05-10T23:22:07;10.7;;;4.9;;
72123;SDS011;63818;37.134;-8.548;2023-05-10T23:26:53;12.5;;;5.2;;
72123;SDS011;63818;37.134;-8.548;2023-05-10T23:31:39;13.5;;;5.1;;
72123;SDS011;63818;37.134;-8.548;2023-05-10T23:36:25;14.4;;;4.8;;
72123;SDS011;63818;37.134;-8.548;2023-05-10T23:41:11;13.9;;;4.9;;
72123;SDS011;63818;37.134;-8.548;2023-05-10T23:45:57;11.3;;;5.0;;
72123;SDS011;63818;37.134;-8.548;2023-05-10T23:50:44;14.3;;;5.2;;
72123;SDS011;63818;37.134;-8.548;2023-05-10T23:55:31;16.9;;;5.5;;
